Time;durP1;ratioP1;P1;durP2;ratioP2;P2;SDS_P1;SDS_P2;PMS_P1;PMS_P2;Temp;Humidity;BMP_temperature;BMP_pressure;BME280_temperature;BME280_humidity;BME280_pressure;Samples;Min_cycle;Max_cycle;Signal;HPM_P1;HPM_P2
2022/08/11 00:01:55;;;;;;;17.83;11.00;;;13.40;99.90;;;;;;4974689;28;20034;-67
2022/08/11 00:04:25;;;;;;;14.68;11.02;;;13.40;99.90;;;;;;4974728;28;20018;-68
2022/08/11 00:06:54;;;;;;;16.13;10.70;;;13.50;99.90;;;;;;4975677;28;20029;-69
2022/08/11 00:09:31;;;;;;;14.85;10.77;;;13.50;99.90;;;;;;4975353;28;20070;-67
2022/08/11 00:11:59;;;;;;;15.68;9.73;;;13.60;99.90;;;;;;4976408;28;20899;-72
2022/08/11 00:14:32;;;;;;;14.75;10.23;;;13.60;99.90;;;;;;4975125;28;20023;-71
2022/08/11 00:17:04;;;;;;;16.67;9.52;;;13.70;99.90;;;;;;4975470;28;20066;-72
2022/08/11 00:19:34;;;;;;;13.80;8.60;;;13.70;99.90;;;;;;4974061;28;20077;-70
2022/08/11 00:22:03;;;;;;;13.15;8.02;;;13.80;99.90;;;;;;4974065;28;20383;-71
2022/08/11 00:24:35;;;;;;;14.02;8.00;;;13.80;99.90;;;;;;4975272;28;20481;-67
2022/08/11 00:27:04;;;;;;;10.25;7.35;;;13.80;99.90;;;;;;4971477;28;20060;-73
2022/08/11 00:29:33;;;;;;;12.98;9.07;;;13.90;99.90;;;;;;4974920;28;20034;-70
2022/08/11 00:32:03;;;;;;;12.32;9.35;;;13.90;99.90;;;;;;4972923;28;20062;-71
2022/08/11 00:34:33;;;;;;;17.67;9.40;;;14.00;99.90;;;;;;4974671;28;20030;-71
2022/08/11 00:37:06;;;;;;;19.85;9.57;;;14.00;99.90;;;;;;4974383;28;20046;-71
2022/08/11 00:39:42;;;;;;;13.68;8.63;;;14.00;99.90;;;;;;4974921;28;20534;-71
2022/08/11 00:42:27;;;;;;;13.60;7.47;;;14.00;99.90;;;;;;4975887;28;20061;-73
2022/08/11 00:45:21;;;;;;;10.63;7.25;;;14.20;99.90;;;;;;4977680;28;20053;-72
2022/08/11 00:47:58;;;;;;;12.30;7.82;;;14.20;99.90;;;;;;4979070;28;20034;-71
2022/08/11 00:50:35;;;;;;;13.00;7.18;;;14.30;99.90;;;;;;4978784;28;20109;-71
2022/08/11 00:53:36;;;;;;;11.30;7.40;;;14.30;99.90;;;;;;4982772;28;20034;-71
2022/08/11 00:56:27;;;;;;;12.73;6.10;;;14.40;99.90;;;;;;4978847;28;20054;-71
2022/08/11 00:59:20;;;;;;;12.00;5.78;;;14.40;99.90;;;;;;4979628;28;20418;-69
2022/08/11 01:02:10;;;;;;;14.35;5.82;;;14.50;99.90;;;;;;4985672;28;20038;-71
2022/08/11 01:04:56;;;;;;;12.57;6.38;;;14.50;99.90;;;;;;4975415;28;20078;-73
2022/08/11 01:07:41;;;;;;;13.70;5.65;;;14.50;99.90;;;;;;4975343;28;20042;-74
2022/08/11 01:10:22;;;;;;;11.15;5.70;;;14.50;99.90;;;;;;4977414;28;20101;-70
2022/08/11 01:13:18;;;;;;;10.05;5.90;;;14.60;99.90;;;;;;4981101;28;20554;-73
2022/08/11 01:15:58;;;;;;;10.95;5.90;;;14.60;99.90;;;;;;4969385;28;20019;-70
2022/08/11 01:18:46;;;;;;;11.15;5.20;;;14.60;99.90;;;;;;4978424;28;20428;-70
2022/08/11 01:21:34;;;;;;;13.48;6.57;;;14.70;99.90;;;;;;4957741;28;20027;-71
2022/08/11 01:24:20;;;;;;;12.80;7.28;;;14.60;99.90;;;;;;4960758;28;20090;-70
2022/08/11 01:27:25;;;;;;;11.70;5.40;;;14.70;99.90;;;;;;4978335;28;20042;-74
2022/08/11 01:30:17;;;;;;;10.90;5.38;;;14.70;99.90;;;;;;4985404;28;20034;-72
2022/08/11 01:33:19;;;;;;;9.05;4.47;;;14.70;99.90;;;;;;4960387;28;20113;-72
2022/08/11 01:36:09;;;;;;;11.27;4.50;;;14.80;99.90;;;;;;4959545;28;20019;-73
2022/08/11 01:38:57;;;;;;;10.23;4.00;;;14.80;99.90;;;;;;4965590;28;20118;-74
2022/08/11 01:45:18;;;;;;;10.35;5.18;;;15.00;99.90;;;;;;4967661;28;20041;-71
2022/08/11 01:48:13;;;;;;;12.85;3.20;;;15.10;99.90;;;;;;4979334;28;20512;-70
2022/08/11 01:50:56;;;;;;;7.00;2.78;;;15.30;99.90;;;;;;4977450;28;20125;-70
2022/08/11 01:53:42;;;;;;;6.22;3.03;;;15.50;99.90;;;;;;4976327;28;20023;-70
2022/08/11 01:56:23;;;;;;;8.75;3.10;;;15.70;99.90;;;;;;4979269;28;20080;-73
2022/08/11 01:59:09;;;;;;;6.07;2.22;;;15.80;99.90;;;;;;4980259;28;20041;-71
2022/08/11 02:01:36;;;;;;;6.32;1.40;;;15.90;99.90;;;;;;4975599;28;20100;-72
2022/08/11 02:04:30;;;;;;;8.93;2.15;;;16.00;99.90;;;;;;4978709;28;20037;-72
2022/08/11 02:07:30;;;;;;;6.80;1.48;;;16.10;99.90;;;;;;4959827;28;20030;-72
2022/08/11 02:13:45;;;;;;;4.35;1.08;;;16.10;99.90;;;;;;4975475;28;20489;-73
2022/08/11 02:16:24;;;;;;;2.92;1.15;;;16.20;99.90;;;;;;4975639;28;20566;-71
2022/08/11 02:25:24;;;;;;;6.30;1.02;;;16.90;99.90;;;;;;4978437;28;20029;-76
2022/08/11 02:28:17;;;;;;;4.53;0.93;;;17.00;99.90;;;;;;4992941;28;20030;-76
2022/08/11 02:34:30;;;;;;;4.30;1.17;;;17.00;99.90;;;;;;5004371;28;20037;-74
2022/08/11 02:37:23;;;;;;;2.33;0.90;;;16.70;99.90;;;;;;4975476;28;20106;-74
2022/08/11 02:40:15;;;;;;;5.40;1.25;;;16.80;99.90;;;;;;4978198;28;20034;-73
2022/08/11 02:42:45;;;;;;;3.78;1.00;;;16.80;99.90;;;;;;4976095;28;20030;-70
2022/08/11 02:45:12;;;;;;;3.92;1.33;;;16.80;99.90;;;;;;4977567;28;20038;-74
2022/08/11 02:50:51;;;;;;;2.45;0.93;;;16.70;99.90;;;;;;4976892;28;20034;-74
2022/08/11 02:53:46;;;;;;;4.68;1.52;;;16.60;99.90;;;;;;4978402;28;20023;-74
2022/08/11 02:56:31;;;;;;;4.18;1.10;;;16.80;99.90;;;;;;4977873;28;20124;-71
2022/08/11 03:02:16;;;;;;;1.65;1.25;;;17.10;99.90;;;;;;4968619;28;20093;-71
2022/08/11 03:05:06;;;;;;;3.65;0.70;;;17.30;99.10;;;;;;4972176;28;20077;-71
2022/08/11 03:08:10;;;;;;;5.55;1.67;;;17.50;98.90;;;;;;4972074;28;20381;-72
2022/08/11 03:17:00;;;;;;;7.85;1.08;;;17.80;98.10;;;;;;4975280;28;20033;-72
2022/08/11 03:20:03;;;;;;;10.35;1.25;;;17.80;98.20;;;;;;4977020;28;20027;-72
2022/08/11 03:22:47;;;;;;;5.28;1.67;;;17.90;98.30;;;;;;4968913;28;20022;-70
2022/08/11 03:25:34;;;;;;;6.97;1.60;;;17.90;98.30;;;;;;4972050;28;20078;-71
2022/08/11 03:28:16;;;;;;;3.28;1.23;;;17.90;98.10;;;;;;4971368;28;20029;-72
2022/08/11 03:31:26;;;;;;;4.03;1.40;;;17.90;98.00;;;;;;4974869;28;20031;-71
2022/08/11 03:34:26;;;;;;;4.13;1.00;;;17.80;98.60;;;;;;4977783;28;20042;-71
2022/08/11 03:44:05;;;;;;;4.57;1.00;;;17.90;97.40;;;;;;4992208;28;20037;-74
2022/08/11 03:46:50;;;;;;;;;;;17.80;97.40;;;;;;4988669;28;20042;-72
2022/08/11 03:49:49;;;;;;;3.45;1.10;;;17.80;97.10;;;;;;4968164;28;19915;-71
2022/08/11 03:52:28;;;;;;;3.42;0.80;;;17.80;97.20;;;;;;4974889;28;20698;-71
2022/08/11 03:55:24;;;;;;;6.25;1.77;;;17.80;97.20;;;;;;4976119;28;20085;-72
2022/08/11 03:58:12;;;;;;;2.90;1.42;;;17.80;97.20;;;;;;4990393;28;20068;-73
2022/08/11 04:00:55;;;;;;;2.00;1.00;;;17.70;97.10;;;;;;4995921;28;20026;-71
2022/08/11 04:03:45;;;;;;;;;;;17.70;97.00;;;;;;4976074;28;20026;-71
2022/08/11 04:06:35;;;;;;;4.50;1.33;;;17.70;97.40;;;;;;4975031;28;19918;-72
2022/08/11 04:09:22;;;;;;;3.22;1.00;;;17.70;96.80;;;;;;4975934;28;20494;-70
2022/08/11 04:12:07;;;;;;;4.47;1.50;;;17.60;97.20;;;;;;4976762;28;20022;-71
2022/08/11 04:17:44;;;;;;;2.28;0.75;;;17.50;97.70;;;;;;4959578;28;20129;-70
2022/08/11 04:20:17;;;;;;;2.70;0.95;;;17.40;97.50;;;;;;4976581;28;20092;-70
2022/08/11 04:23:12;;;;;;;2.97;0.82;;;17.40;97.60;;;;;;4980722;28;20041;-73
2022/08/11 04:26:09;;;;;;;2.50;0.80;;;17.40;97.20;;;;;;4980209;28;20030;-73
2022/08/11 04:28:55;;;;;;;1.90;0.80;;;17.30;97.30;;;;;;4980013;28;20483;-70
2022/08/11 04:31:49;;;;;;;1.70;0.90;;;17.30;97.40;;;;;;4979215;28;20073;-71
2022/08/11 04:34:33;;;;;;;4.15;0.80;;;17.20;97.50;;;;;;4981824;28;20026;-71
2022/08/11 04:40:32;;;;;;;1.50;0.98;;;17.00;96.90;;;;;;4988026;28;20115;-70
2022/08/11 04:43:20;;;;;;;2.63;1.23;;;16.90;97.10;;;;;;4979976;28;20047;-72
2022/08/11 04:46:05;;;;;;;4.43;1.30;;;17.00;97.30;;;;;;4975365;28;20070;-69
2022/08/11 05:01:46;;;;;;;1.63;0.85;;;16.70;98.10;;;;;;4982904;28;20108;-74
2022/08/11 05:07:39;;;;;;;2.95;1.00;;;16.70;98.50;;;;;;4977700;28;20307;-71
2022/08/11 05:10:11;;;;;;;1.40;0.93;;;16.60;98.70;;;;;;4975801;28;20018;-70
2022/08/11 05:12:54;;;;;;;6.80;1.55;;;16.60;98.70;;;;;;4981098;28;20050;-71
2022/08/11 05:36:22;;;;;;;4.68;1.33;;;16.50;99.60;;;;;;4989932;28;20048;-72
2022/08/11 05:58:43;;;;;;;2.47;1.08;;;16.20;99.90;;;;;;4972745;28;20185;-71
2022/08/11 06:01:20;;;;;;;2.78;1.20;;;16.30;99.70;;;;;;4974358;28;20034;-70
2022/08/11 06:06:41;;;;;;;2.80;1.33;;;16.30;99.80;;;;;;4975892;28;20122;-69
2022/08/11 06:09:13;;;;;;;2.70;1.20;;;16.30;99.70;;;;;;4977541;28;20127;-69
2022/08/11 06:11:42;;;;;;;3.25;1.02;;;16.20;99.50;;;;;;4972795;28;20344;-69
2022/08/11 06:14:10;;;;;;;2.42;1.15;;;16.30;99.70;;;;;;5007444;28;20029;-71
2022/08/11 06:16:40;;;;;;;4.93;1.60;;;16.30;99.70;;;;;;4976224;28;20038;-68
2022/08/11 06:19:09;;;;;;;2.55;1.10;;;16.20;99.80;;;;;;4976493;28;20067;-71
2022/08/11 06:21:37;;;;;;;3.72;1.30;;;16.20;99.90;;;;;;4971240;28;20575;-69
2022/08/11 06:24:11;;;;;;;3.75;1.70;;;16.20;99.90;;;;;;4976768;28;20117;-70
2022/08/11 06:26:41;;;;;;;3.97;1.52;;;16.20;99.90;;;;;;4975877;28;20049;-71
2022/08/11 06:29:11;;;;;;;4.53;1.55;;;16.10;99.90;;;;;;4976569;28;20552;-71
2022/08/11 06:31:38;;;;;;;2.15;1.08;;;16.10;99.90;;;;;;4975058;28;20061;-72
2022/08/11 06:34:14;;;;;;;2.78;1.42;;;16.10;99.90;;;;;;4975359;28;20096;-71
2022/08/11 06:37:00;;;;;;;7.53;2.58;;;16.00;99.90;;;;;;4984903;28;20021;-70
2022/08/11 06:39:43;;;;;;;3.15;1.55;;;16.00;99.90;;;;;;4975371;28;20026;-73
2022/08/11 06:42:15;;;;;;;;;;;16.00;99.90;;;;;;4977815;28;20101;-72
2022/08/11 06:45:07;;;;;;;2.95;1.33;;;15.90;99.90;;;;;;4976542;28;19917;-69
2022/08/11 06:47:35;;;;;;;3.17;2.00;;;15.90;99.90;;;;;;4960623;28;20042;-71
2022/08/11 06:52:53;;;;;;;4.05;1.55;;;15.80;99.90;;;;;;4976275;28;20030;-70
2022/08/11 07:01:15;;;;;;;3.47;1.63;;;15.70;99.90;;;;;;4977440;28;20068;-71
2022/08/11 07:03:50;;;;;;;3.35;1.30;;;15.70;99.90;;;;;;4975151;28;20379;-70
2022/08/11 07:06:31;;;;;;;3.72;1.80;;;15.70;99.90;;;;;;4976523;28;20068;-70
2022/08/11 07:15:45;;;;;;;5.35;1.83;;;15.60;99.90;;;;;;4955125;28;20861;-72
2022/08/11 07:30:28;;;;;;;3.08;1.80;;;15.40;99.90;;;;;;4974287;28;20049;-73
2022/08/11 07:32:59;;;;;;;5.03;2.80;;;15.40;99.90;;;;;;4975334;28;20662;-71
2022/08/11 07:35:37;;;;;;;5.05;2.53;;;15.40;99.90;;;;;;4972776;28;20445;-69
2022/08/11 07:38:15;;;;;;;6.68;3.22;;;15.40;99.90;;;;;;4977194;28;20030;-72
2022/08/11 07:40:45;;;;;;;5.30;3.05;;;15.40;99.90;;;;;;4975193;28;20053;-73
2022/08/11 07:43:13;;;;;;;4.18;2.35;;;15.30;99.90;;;;;;4977346;28;20080;-72
2022/08/11 07:54:07;;;;;;;6.55;2.20;;;15.40;99.90;;;;;;4981623;28;20116;-73
2022/08/11 07:56:36;;;;;;;4.22;2.60;;;15.30;99.90;;;;;;4979608;28;20026;-72
2022/08/11 08:18:28;;;;;;;5.93;2.53;;;15.20;99.90;;;;;;4980740;28;20197;-70
2022/08/11 08:21:10;;;;;;;5.60;2.88;;;15.10;99.90;;;;;;4979693;28;20037;-71
2022/08/11 08:23:47;;;;;;;5.63;2.38;;;15.20;99.90;;;;;;4978618;28;20026;-74
2022/08/11 08:31:51;;;;;;;4.50;2.50;;;15.10;99.90;;;;;;4978597;28;20141;-72
2022/08/11 08:34:19;;;;;;;5.32;3.10;;;15.10;99.90;;;;;;4981167;28;20014;-72
2022/08/11 08:36:49;;;;;;;6.20;2.70;;;15.10;99.90;;;;;;4978794;28;20084;-72
2022/08/11 08:39:21;;;;;;;5.13;2.67;;;15.20;99.90;;;;;;4981109;28;20029;-72
2022/08/11 08:41:56;;;;;;;6.57;3.28;;;15.10;99.90;;;;;;4979420;28;20053;-69
2022/08/11 08:44:25;;;;;;;4.13;2.65;;;15.20;99.90;;;;;;4980236;28;20429;-73
2022/08/11 08:46:57;;;;;;;7.63;3.33;;;15.20;99.90;;;;;;4978089;28;20039;-72
2022/08/11 08:49:37;;;;;;;7.77;2.90;;;15.10;99.90;;;;;;4980598;28;20246;-73
2022/08/11 08:52:07;;;;;;;5.03;2.22;;;15.20;99.90;;;;;;4980409;28;20033;-74
2022/08/11 08:54:38;;;;;;;3.88;2.17;;;15.20;99.90;;;;;;4980138;28;20041;-71
2022/08/11 08:57:07;;;;;;;4.15;2.20;;;15.20;99.90;;;;;;4979324;28;20124;-70
2022/08/11 08:59:43;;;;;;;4.20;2.53;;;15.20;99.90;;;;;;4980158;28;20030;-71
2022/08/11 09:02:12;;;;;;;4.88;2.78;;;15.10;99.90;;;;;;4979665;28;20360;-72
2022/08/11 09:04:43;;;;;;;4.93;2.35;;;15.10;99.90;;;;;;4979305;28;20419;-72
2022/08/11 09:07:16;;;;;;;4.18;2.60;;;15.20;99.90;;;;;;4979224;28;20035;-73
2022/08/11 09:09:51;;;;;;;5.00;2.50;;;15.20;99.90;;;;;;4979673;28;20023;-72
2022/08/11 09:12:20;;;;;;;3.58;2.28;;;15.20;99.90;;;;;;4979475;28;20026;-72
2022/08/11 09:15:03;;;;;;;5.65;2.30;;;15.10;99.90;;;;;;4980477;28;20069;-71
2022/08/11 09:17:36;;;;;;;6.20;2.70;;;15.20;99.90;;;;;;4979778;28;20032;-73
2022/08/11 09:20:28;;;;;;;3.25;2.30;;;15.20;99.90;;;;;;4977206;28;20154;-74
2022/08/11 09:28:36;;;;;;;6.72;3.03;;;15.20;99.90;;;;;;4960550;28;20050;-74
2022/08/11 09:31:05;;;;;;;5.68;3.67;;;15.10;99.90;;;;;;4958619;28;20026;-71
2022/08/11 09:33:35;;;;;;;9.00;4.65;;;15.10;99.90;;;;;;4971094;28;20019;-73
2022/08/11 09:40:27;;;;;;;8.90;3.63;;;15.00;99.90;;;;;;4977484;28;20037;-71
2022/08/11 09:41:38;;;;;;;5.32;3.40;;;14.90;99.90;;;;;;4979454;28;20033;-69
2022/08/11 09:46:53;;;;;;;6.68;3.13;;;14.90;99.90;;;;;;4979768;28;20125;-73
2022/08/11 09:49:21;;;;;;;7.97;3.72;;;14.80;99.90;;;;;;4977260;28;20026;-73
2022/08/11 09:51:52;;;;;;;5.82;3.75;;;14.80;99.90;;;;;;4978214;28;20113;-72
2022/08/11 09:54:22;;;;;;;7.28;3.47;;;14.80;99.90;;;;;;4973722;28;20023;-72
2022/08/11 09:59:40;;;;;;;7.20;3.38;;;14.70;99.90;;;;;;4979221;28;20506;-72
2022/08/11 10:02:09;;;;;;;6.65;3.40;;;14.70;99.90;;;;;;4976584;28;20090;-70
2022/08/11 10:04:41;;;;;;;7.90;4.05;;;14.70;99.90;;;;;;4978527;28;20027;-72
2022/08/11 10:07:09;;;;;;;5.85;4.07;;;14.70;99.90;;;;;;4977272;28;20040;-74
2022/08/11 10:09:39;;;;;;;8.85;4.03;;;14.70;99.90;;;;;;4978770;28;20136;-73
2022/08/11 10:12:40;;;;;;;5.47;3.33;;;14.70;99.90;;;;;;4976956;28;20812;-70
2022/08/11 10:15:37;;;;;;;6.13;3.90;;;14.70;99.90;;;;;;4977061;28;20065;-72
2022/08/11 10:21:23;;;;;;;10.38;5.03;;;14.70;99.90;;;;;;4979852;28;20498;-72
2022/08/11 10:26:53;;;;;;;8.73;6.15;;;14.70;99.90;;;;;;4974089;28;20044;-74
2022/08/11 10:35:20;;;;;;;6.22;3.42;;;14.70;99.90;;;;;;4961743;28;20062;-74
2022/08/11 10:37:48;;;;;;;5.40;3.05;;;14.70;99.90;;;;;;4957287;28;20065;-71
2022/08/11 10:40:18;;;;;;;5.80;2.88;;;14.70;99.90;;;;;;4965954;28;20018;-70
2022/08/11 10:48:29;;;;;;;9.23;3.70;;;14.70;99.90;;;;;;4976771;28;20080;-69
2022/08/11 10:51:13;;;;;;;8.05;3.17;;;14.60;99.90;;;;;;4978678;28;20029;-71
2022/08/11 10:59:28;;;;;;;8.52;4.10;;;14.60;99.90;;;;;;4978110;28;20494;-70
2022/08/11 11:01:57;;;;;;;7.35;4.28;;;14.60;99.90;;;;;;4978120;28;20018;-71
2022/08/11 11:04:41;;;;;;;7.32;4.07;;;14.60;99.90;;;;;;4979167;28;20030;-72
2022/08/11 11:07:16;;;;;;;7.20;3.97;;;14.60;99.90;;;;;;4979514;28;20045;-69
2022/08/11 11:10:08;;;;;;;8.02;4.63;;;14.60;99.90;;;;;;4978328;28;20022;-71
2022/08/11 11:18:36;;;;;;;8.57;4.22;;;14.60;99.90;;;;;;4976987;28;20093;-70
2022/08/11 11:21:07;;;;;;;5.28;3.03;;;14.60;99.90;;;;;;4974145;28;20033;-73
2022/08/11 11:23:46;;;;;;;6.10;3.55;;;14.60;99.90;;;;;;4977951;28;20019;-72
2022/08/11 11:26:19;;;;;;;6.13;3.30;;;14.50;99.90;;;;;;4976951;28;20113;-71
2022/08/11 11:28:57;;;;;;;7.43;4.13;;;14.50;99.90;;;;;;4977181;28;20393;-74
2022/08/11 11:31:33;;;;;;;5.28;3.00;;;14.50;99.90;;;;;;4976786;28;20109;-71
2022/08/11 11:34:31;;;;;;;5.93;3.30;;;14.50;99.90;;;;;;4975187;28;20029;-73
2022/08/11 11:37:00;;;;;;;6.43;3.35;;;14.50;99.90;;;;;;4975868;28;20133;-73
2022/08/11 11:39:30;;;;;;;7.03;3.47;;;14.50;99.90;;;;;;4977929;28;20102;-71
2022/08/11 11:42:03;;;;;;;5.55;3.75;;;14.50;99.90;;;;;;4976435;28;20210;-71
2022/08/11 11:44:31;;;;;;;5.60;3.08;;;14.40;99.90;;;;;;4977660;28;20033;-74
2022/08/11 11:47:00;;;;;;;7.43;3.70;;;14.50;99.90;;;;;;4976348;28;20062;-71
2022/08/11 11:49:31;;;;;;;5.05;3.42;;;14.50;99.90;;;;;;4976962;28;20021;-72
2022/08/11 11:51:59;;;;;;;4.68;3.58;;;14.50;99.90;;;;;;4975876;28;20080;-71
2022/08/11 11:54:31;;;;;;;5.53;3.10;;;14.50;99.90;;;;;;4977220;28;20022;-72
2022/08/11 12:01:14;;;;;;;7.20;3.22;;;14.40;99.90;;;;;;4976031;28;20172;-70
2022/08/11 12:02:37;;;;;;;6.25;3.00;;;14.50;99.90;;;;;;4956350;28;20034;-72
2022/08/11 12:05:06;;;;;;;7.18;3.28;;;14.40;99.90;;;;;;4956634;28;20499;-73
2022/08/11 12:10:21;;;;;;;4.03;3.10;;;14.40;99.90;;;;;;4977490;28;20077;-71
2022/08/11 12:15:36;;;;;;;5.07;2.63;;;14.50;99.90;;;;;;4975994;28;20977;-74
2022/08/11 12:18:04;;;;;;;5.97;2.60;;;14.50;99.90;;;;;;4976614;28;20099;-73
2022/08/11 12:20:32;;;;;;;5.25;2.58;;;14.50;99.90;;;;;;4976005;28;20566;-70
2022/08/11 12:28:32;;;;;;;6.05;2.55;;;14.50;99.90;;;;;;4975553;28;20387;-74
2022/08/11 12:31:00;;;;;;;6.22;3.25;;;14.50;99.90;;;;;;4975732;28;20033;-72
2022/08/11 12:33:28;;;;;;;7.78;2.60;;;14.50;99.90;;;;;;4975629;28;20122;-71
2022/08/11 12:35:59;;;;;;;4.32;2.53;;;14.40;99.90;;;;;;4975996;28;20017;-72
2022/08/11 12:38:27;;;;;;;7.05;3.42;;;14.40;99.90;;;;;;4978196;28;20019;-70
2022/08/11 12:46:35;;;;;;;6.18;2.70;;;14.40;99.90;;;;;;4978893;28;20862;-73
2022/08/11 12:52:11;;;;;;;4.93;2.55;;;14.40;99.90;;;;;;4979555;28;19924;-71
2022/08/11 12:55:06;;;;;;;5.80;2.75;;;14.40;99.90;;;;;;4979294;28;20022;-72
2022/08/11 13:06:06;;;;;;;5.55;2.55;;;14.30;99.90;;;;;;4979554;28;20046;-72
2022/08/11 13:08:38;;;;;;;5.75;2.70;;;14.30;99.90;;;;;;4979093;28;20531;-71
2022/08/11 13:13:57;;;;;;;6.25;3.85;;;14.20;99.90;;;;;;4979712;28;20056;-74
2022/08/11 13:17:21;;;;;;;4.88;3.03;;;14.30;99.90;;;;;;4978831;28;20027;-74
2022/08/11 13:19:24;;;;;;;4.25;2.60;;;14.20;99.90;;;;;;4978538;28;20053;-72
2022/08/11 13:21:52;;;;;;;4.53;2.88;;;14.30;99.90;;;;;;4978139;28;20026;-72
2022/08/11 13:24:22;;;;;;;6.30;3.33;;;14.20;99.90;;;;;;4979110;28;20027;-73
2022/08/11 13:26:50;;;;;;;4.75;3.13;;;14.20;99.90;;;;;;4977902;28;20034;-72
2022/08/11 13:29:25;;;;;;;6.20;3.30;;;14.30;99.90;;;;;;4978540;28;20019;-73
2022/08/11 13:31:57;;;;;;;6.32;3.13;;;14.20;99.90;;;;;;4978284;28;20438;-72
2022/08/11 13:34:25;;;;;;;4.63;3.10;;;14.20;99.90;;;;;;4978521;28;20019;-74
2022/08/11 13:36:56;;;;;;;5.53;3.28;;;14.20;99.90;;;;;;4977741;28;20026;-74
2022/08/11 13:39:26;;;;;;;8.55;3.22;;;14.10;99.90;;;;;;4992868;28;20132;-71
2022/08/11 13:41:59;;;;;;;7.10;3.75;;;14.10;99.90;;;;;;4977897;28;20471;-74
2022/08/11 13:44:37;;;;;;;4.68;2.95;;;14.10;99.90;;;;;;4977799;28;20034;-74
2022/08/11 13:47:07;;;;;;;5.75;2.85;;;14.10;99.90;;;;;;4978673;28;20227;-74
2022/08/11 13:49:40;;;;;;;7.28;3.10;;;14.10;99.90;;;;;;4978506;28;20061;-73
2022/08/11 13:52:15;;;;;;;5.15;2.92;;;14.10;99.90;;;;;;4977607;28;20112;-74
2022/08/11 13:54:45;;;;;;;5.50;3.67;;;14.10;99.90;;;;;;4979128;28;20027;-73
2022/08/11 13:57:18;;;;;;;4.90;2.92;;;14.10;99.90;;;;;;4976270;28;20112;-72
2022/08/11 13:59:52;;;;;;;6.57;3.17;;;14.10;99.90;;;;;;4979178;28;20038;-73
2022/08/11 14:02:27;;;;;;;10.65;3.20;;;14.10;99.90;;;;;;4977050;28;20027;-73
2022/08/11 14:05:11;;;;;;;6.43;3.35;;;14.10;99.90;;;;;;4979063;28;20503;-73
2022/08/11 14:07:41;;;;;;;5.35;3.45;;;14.10;99.90;;;;;;4977973;28;20034;-71
2022/08/11 14:10:10;;;;;;;5.55;2.90;;;14.10;99.90;;;;;;4977224;28;20028;-74
2022/08/11 14:15:32;;;;;;;5.38;2.88;;;14.10;99.90;;;;;;4977131;28;20053;-71
2022/08/11 14:18:13;;;;;;;5.25;2.83;;;14.10;99.90;;;;;;4978137;28;20045;-73
2022/08/11 14:23:49;;;;;;;7.82;3.28;;;14.20;99.90;;;;;;4978073;28;20080;-71
2022/08/11 14:26:22;;;;;;;3.85;2.67;;;14.10;99.90;;;;;;4976853;28;20038;-72
2022/08/11 14:29:16;;;;;;;8.73;2.78;;;14.10;99.90;;;;;;4977939;28;20023;-73
2022/08/11 14:31:56;;;;;;;5.07;2.75;;;14.10;99.90;;;;;;4977823;28;20395;-73
2022/08/11 14:34:27;;;;;;;4.20;2.80;;;14.10;99.90;;;;;;4976931;28;20058;-73
2022/08/11 14:36:59;;;;;;;7.13;2.88;;;14.10;99.90;;;;;;4978228;28;20034;-74
2022/08/11 14:39:34;;;;;;;6.00;2.45;;;14.10;99.90;;;;;;4977937;28;20030;-73
2022/08/11 14:47:53;;;;;;;5.00;2.60;;;14.10;99.90;;;;;;4978575;28;20128;-71
2022/08/11 14:50:23;;;;;;;4.35;2.20;;;14.10;99.90;;;;;;4976711;28;20023;-71
2022/08/11 14:52:59;;;;;;;6.15;3.50;;;14.10;99.90;;;;;;4976858;28;20029;-72
2022/08/11 14:58:19;;;;;;;6.80;3.30;;;14.00;99.90;;;;;;4977230;28;20517;-68
2022/08/11 15:00:46;;;;;;;;;;;14.00;99.90;;;;;;4977204;28;20018;-72
2022/08/11 15:03:15;;;;;;;4.25;2.90;;;14.00;99.90;;;;;;4975232;28;20362;-74
2022/08/11 15:05:55;;;;;;;5.05;3.03;;;14.00;99.90;;;;;;4975476;28;20872;-74
2022/08/11 15:14:02;;;;;;;6.28;3.67;;;14.00;99.90;;;;;;4976563;28;20708;-72
2022/08/11 15:19:19;;;;;;;5.20;2.95;;;14.00;99.90;;;;;;4976705;28;20049;-73
2022/08/11 15:24:35;;;;;;;5.40;3.15;;;14.10;99.90;;;;;;4990080;28;20054;-72
2022/08/11 15:38:15;;;;;;;4.28;2.53;;;14.00;99.90;;;;;;4976448;28;20091;-72
2022/08/11 15:46:41;;;;;;;7.30;2.42;;;14.00;99.90;;;;;;4956696;28;20046;-72
2022/08/11 15:49:36;;;;;;;3.55;2.30;;;14.00;99.90;;;;;;4972880;28;20026;-74
2022/08/11 15:52:32;;;;;;;6.95;4.00;;;13.90;99.90;;;;;;4965705;28;20487;-72
2022/08/11 15:55:04;;;;;;;6.22;3.00;;;13.90;99.90;;;;;;4976624;28;20382;-73
2022/08/11 16:05:52;;;;;;;5.05;3.28;;;13.80;99.90;;;;;;4974701;28;20046;-73
2022/08/11 16:08:24;;;;;;;5.32;3.00;;;13.80;99.90;;;;;;4978027;28;20376;-73
2022/08/11 16:10:55;;;;;;;6.13;3.17;;;13.70;99.90;;;;;;4974634;28;20603;-70
2022/08/11 16:16:15;;;;;;;6.22;3.55;;;13.70;99.90;;;;;;4958846;28;20023;-74
2022/08/11 16:18:54;;;;;;;4.47;3.38;;;13.60;99.90;;;;;;4959686;28;20029;-70
2022/08/11 16:21:29;;;;;;;8.90;3.28;;;13.60;99.90;;;;;;4965516;28;20061;-70
2022/08/11 16:23:59;;;;;;;5.53;3.53;;;13.60;99.90;;;;;;4978512;28;20030;-72
2022/08/11 16:26:28;;;;;;;8.32;4.05;;;13.50;99.90;;;;;;4981174;28;20105;-75
2022/08/11 16:28:59;;;;;;;7.10;3.78;;;13.50;99.90;;;;;;4977610;28;20628;-74
2022/08/11 16:31:28;;;;;;;5.65;3.63;;;13.50;99.90;;;;;;4981219;28;20034;-72
2022/08/11 16:33:56;;;;;;;4.70;3.20;;;13.60;99.90;;;;;;4978040;28;20027;-73
2022/08/11 16:39:17;;;;;;;6.47;3.83;;;13.50;99.90;;;;;;4979770;28;20026;-73
2022/08/11 16:47:21;;;;;;;6.53;3.95;;;13.50;99.90;;;;;;4979183;28;20092;-72
2022/08/11 16:49:53;;;;;;;5.88;3.47;;;13.50;99.90;;;;;;4979422;28;20026;-74
2022/08/11 16:52:22;;;;;;;6.20;4.15;;;13.40;99.90;;;;;;4979069;28;20081;-73
2022/08/11 16:54:49;;;;;;;5.00;3.78;;;13.50;99.90;;;;;;4979372;28;20073;-73
2022/08/11 17:00:17;;;;;;;7.07;3.78;;;13.40;99.90;;;;;;4977573;28;20036;-73
2022/08/11 17:16:05;;;;;;;6.90;4.35;;;13.40;99.90;;;;;;4980697;28;20033;-71
2022/08/11 17:17:53;;;;;;;4.85;3.35;;;13.40;99.90;;;;;;4980085;28;20031;-71
2022/08/11 17:20:21;;;;;;;6.60;3.60;;;13.40;99.90;;;;;;4978181;28;20036;-75
2022/08/11 17:25:37;;;;;;;8.68;3.75;;;13.40;99.90;;;;;;4977826;28;20053;-75
2022/08/11 17:28:06;;;;;;;4.65;3.33;;;13.30;99.90;;;;;;4978730;28;20040;-75
2022/08/11 17:36:08;;;;;;;4.07;3.20;;;13.30;99.90;;;;;;4979906;28;20033;-69
2022/08/11 17:38:38;;;;;;;6.63;2.78;;;13.40;99.90;;;;;;4978042;28;20018;-71
2022/08/11 17:49:27;;;;;;;6.35;2.80;;;13.30;99.90;;;;;;4978351;28;20033;-74
2022/08/11 18:00:15;;;;;;;6.78;3.10;;;13.40;99.90;;;;;;4979848;28;20076;-72
2022/08/11 18:05:32;;;;;;;4.93;2.80;;;13.40;99.90;;;;;;4977266;28;20041;-76
